Time;durP1;ratioP1;P1;durP2;ratioP2;P2;SDS_P1;SDS_P2;PMS_P1;PMS_P2;Temp;Humidity;BMP_temperature;BMP_pressure;BME280_temperature;BME280_humidity;BME280_pressure;Samples;Min_cycle;Max_cycle;Signal;HPM_P1;HPM_P2
2021/03/16 00:00:21;;;;;;;0.60;0.60;;;5.00;99.90;;;;;;6092733;23;20273;-88
2021/03/16 00:02:48;;;;;;;0.60;0.60;;;3.60;99.90;;;;;;6094072;23;20199;-87
2021/03/16 00:05:15;;;;;;;0.60;0.60;;;5.40;99.90;;;;;;6093843;23;20289;-88
2021/03/16 00:07:41;;;;;;;0.60;0.60;;;3.60;99.90;;;;;;6093970;23;20190;-87
2021/03/16 00:10:08;;;;;;;0.60;0.60;;;6.50;99.90;;;;;;6094045;23;20182;-87
2021/03/16 00:12:35;;;;;;;0.60;0.60;;;3.40;99.90;;;;;;6094124;23;20258;-87
2021/03/16 00:15:01;;;;;;;0.60;0.60;;;4.20;99.90;;;;;;6094223;23;20179;-87
2021/03/16 00:17:28;;;;;;;0.60;0.60;;;3.00;99.90;;;;;;6093777;23;20176;-87
2021/03/16 00:19:57;;;;;;;0.60;0.60;;;4.70;99.90;;;;;;6093890;23;20929;-87
2021/03/16 00:22:23;;;;;;;0.50;0.50;;;3.30;99.90;;;;;;6093944;23;20591;-88
2021/03/16 00:24:50;;;;;;;0.60;0.60;;;2.90;99.90;;;;;;6094325;23;20172;-89
2021/03/16 00:27:18;;;;;;;0.57;0.57;;;5.20;99.90;;;;;;6093934;23;20266;-90
2021/03/16 00:29:50;;;;;;;0.57;0.57;;;2.80;99.90;;;;;;6093836;23;20185;-90
2021/03/16 00:32:17;;;;;;;0.60;0.60;;;1.50;99.90;;;;;;6094085;23;20175;-89
2021/03/16 00:34:44;;;;;;;0.60;0.60;;;2.90;99.90;;;;;;6093976;23;20555;-89
2021/03/16 00:37:11;;;;;;;0.60;0.60;;;4.10;99.90;;;;;;6093622;23;20611;-89
2021/03/16 00:39:37;;;;;;;0.60;0.60;;;4.80;99.90;;;;;;6093929;23;20639;-87
2021/03/16 00:42:06;;;;;;;0.60;0.60;;;2.70;99.90;;;;;;6094542;23;20526;-87
2021/03/16 00:44:32;;;;;;;0.60;0.60;;;2.70;99.90;;;;;;6093678;23;20190;-87
2021/03/16 00:46:59;;;;;;;0.60;0.60;;;3.20;99.90;;;;;;6093975;23;20210;-87
2021/03/16 00:49:27;;;;;;;0.60;0.60;;;2.30;99.90;;;;;;6094214;23;20233;-87
2021/03/16 00:51:55;;;;;;;0.50;0.50;;;5.90;99.90;;;;;;6093924;23;20228;-87
2021/03/16 00:54:22;;;;;;;0.60;0.60;;;2.90;99.90;;;;;;6094401;23;20175;-87
2021/03/16 00:56:49;;;;;;;0.60;0.60;;;1.20;99.90;;;;;;6094447;23;20175;-87
2021/03/16 00:59:15;;;;;;;0.60;0.60;;;2.40;99.90;;;;;;6094313;23;20179;-86
2021/03/16 01:01:42;;;;;;;0.60;0.60;;;2.60;99.90;;;;;;6094095;23;20197;-87
2021/03/16 01:04:08;;;;;;;0.60;0.60;;;1.90;99.90;;;;;;6093897;23;20171;-87
2021/03/16 01:06:35;;;;;;;0.50;0.50;;;1.70;99.90;;;;;;6094348;23;20214;-87
2021/03/16 01:09:03;;;;;;;0.60;0.60;;;4.50;99.90;;;;;;6094381;23;20194;-88
2021/03/16 01:11:31;;;;;;;0.60;0.60;;;2.00;99.90;;;;;;6093942;23;20638;-87
2021/03/16 01:14:00;;;;;;;0.55;0.55;;;4.30;99.90;;;;;;6093665;23;20182;-88
2021/03/16 01:16:28;;;;;;;0.60;0.60;;;2.70;99.90;;;;;;6094497;23;20205;-88
2021/03/16 01:18:55;;;;;;;0.60;0.60;;;4.20;99.90;;;;;;6094705;23;20171;-87
2021/03/16 01:21:21;;;;;;;0.52;0.52;;;1.10;99.90;;;;;;6093798;23;20548;-87
2021/03/16 01:23:48;;;;;;;0.60;0.60;;;1.50;99.90;;;;;;6093922;23;20226;-88
2021/03/16 01:26:18;;;;;;;0.60;0.60;;;4.30;99.90;;;;;;6094143;23;20190;-88
2021/03/16 01:28:48;;;;;;;0.52;0.52;;;1.50;99.90;;;;;;6094691;23;20257;-88
2021/03/16 01:31:16;;;;;;;0.52;0.52;;;1.00;99.90;;;;;;6093424;23;20254;-88
2021/03/16 01:33:47;;;;;;;0.60;0.60;;;2.90;99.90;;;;;;6093936;23;20202;-88
2021/03/16 01:36:17;;;;;;;0.60;0.60;;;2.40;99.90;;;;;;6094005;23;20179;-88
2021/03/16 01:38:48;;;;;;;0.60;0.60;;;1.90;99.90;;;;;;6094175;23;20635;-89
2021/03/16 01:41:16;;;;;;;0.60;0.60;;;-0.40;99.90;;;;;;6093771;23;20175;-88
2021/03/16 01:43:44;;;;;;;0.60;0.60;;;2.70;99.90;;;;;;6094390;23;20232;-88
2021/03/16 01:46:14;;;;;;;0.55;0.55;;;2.60;99.90;;;;;;6094226;23;20179;-87
2021/03/16 01:48:40;;;;;;;0.50;0.50;;;1.60;99.90;;;;;;6094004;23;20172;-88
2021/03/16 01:51:10;;;;;;;0.50;0.50;;;4.00;99.90;;;;;;6093628;23;20229;-87
2021/03/16 01:53:37;;;;;;;0.60;0.60;;;1.80;99.90;;;;;;6094649;23;20207;-88
2021/03/16 01:56:06;;;;;;;0.50;0.50;;;3.10;99.90;;;;;;6094001;23;20210;-88
2021/03/16 01:58:34;;;;;;;0.60;0.60;;;1.60;99.90;;;;;;6095172;23;20642;-87
2021/03/16 02:01:00;;;;;;;0.60;0.60;;;3.40;99.90;;;;;;6096392;23;20190;-87
2021/03/16 02:03:27;;;;;;;0.50;0.50;;;2.20;99.90;;;;;;6096807;23;20536;-87
2021/03/16 02:05:54;;;;;;;0.60;0.60;;;3.50;99.90;;;;;;6096338;23;20203;-88
2021/03/16 02:08:28;;;;;;;0.60;0.60;;;0.90;99.90;;;;;;6096338;23;20186;-87
2021/03/16 02:11:02;;;;;;;0.50;0.50;;;2.10;99.90;;;;;;6094416;23;20185;-89
2021/03/16 02:13:37;;;;;;;0.60;0.60;;;4.00;99.90;;;;;;6094707;23;20171;-87
2021/03/16 02:16:11;;;;;;;0.50;0.50;;;3.00;99.90;;;;;;6094750;23;20167;-87
2021/03/16 02:18:42;;;;;;;0.60;0.60;;;3.00;99.90;;;;;;6094451;23;20201;-88
2021/03/16 02:21:16;;;;;;;0.57;0.57;;;3.50;99.90;;;;;;6093775;23;20175;-87
2021/03/16 02:24:03;;;;;;;0.52;0.52;;;0.80;99.90;;;;;;6093849;23;20167;-88
2021/03/16 02:26:36;;;;;;;0.57;0.57;;;1.40;99.90;;;;;;6095517;23;20171;-87
2021/03/16 02:29:09;;;;;;;0.57;0.57;;;0.40;99.90;;;;;;6094727;23;20199;-87
2021/03/16 02:31:39;;;;;;;0.60;0.60;;;0.90;99.90;;;;;;6094202;23;20160;-87
2021/03/16 02:34:08;;;;;;;0.60;0.60;;;1.40;99.90;;;;;;6093791;23;20251;-87
2021/03/16 02:36:36;;;;;;;0.50;0.50;;;0.90;99.90;;;;;;6093299;23;20175;-87
2021/03/16 02:39:05;;;;;;;0.60;0.60;;;1.10;99.90;;;;;;6093596;23;20186;-87
2021/03/16 02:41:33;;;;;;;0.60;0.60;;;0.70;99.90;;;;;;6093144;23;20889;-88
2021/03/16 02:44:00;;;;;;;0.55;0.55;;;1.10;99.90;;;;;;6092982;23;20186;-87
2021/03/16 02:46:30;;;;;;;0.60;0.60;;;1.80;99.90;;;;;;6093477;23;20179;-87
2021/03/16 02:48:58;;;;;;;0.60;0.60;;;0.80;99.90;;;;;;6093272;23;20187;-87
2021/03/16 02:51:24;;;;;;;0.60;0.60;;;1.20;99.90;;;;;;6093249;23;20258;-87
2021/03/16 02:53:52;;;;;;;0.60;0.60;;;1.50;99.90;;;;;;6093054;23;20210;-87
2021/03/16 02:56:20;;;;;;;0.60;0.60;;;0.40;99.90;;;;;;6093302;23;20183;-87
2021/03/16 02:58:47;;;;;;;0.50;0.50;;;0.20;99.90;;;;;;6093098;23;20630;-88
2021/03/16 03:01:16;;;;;;;0.55;0.55;;;2.30;99.90;;;;;;6093570;23;20228;-87
2021/03/16 03:03:46;;;;;;;0.60;0.60;;;0.80;99.90;;;;;;6093123;23;20207;-88
2021/03/16 03:06:15;;;;;;;0.55;0.55;;;0.20;99.90;;;;;;6092909;23;20293;-88
2021/03/16 03:08:46;;;;;;;0.60;0.60;;;2.50;99.90;;;;;;6093368;23;20657;-88
2021/03/16 03:11:14;;;;;;;0.60;0.60;;;1.70;99.90;;;;;;6092688;23;20214;-88
2021/03/16 03:13:40;;;;;;;0.50;0.50;;;0.70;99.90;;;;;;6092738;23;20182;-87
2021/03/16 03:16:07;;;;;;;0.50;0.50;;;0.50;99.90;;;;;;6093221;23;20261;-88
2021/03/16 03:18:34;;;;;;;0.60;0.60;;;1.80;99.90;;;;;;6092876;23;20179;-88
2021/03/16 03:21:06;;;;;;;0.60;0.60;;;0.80;99.90;;;;;;6092985;23;20276;-87
2021/03/16 03:23:38;;;;;;;0.60;0.60;;;1.10;99.90;;;;;;6092930;23;20187;-87
2021/03/16 03:26:11;;;;;;;0.60;0.60;;;0.60;99.90;;;;;;6093330;23;20168;-87
2021/03/16 03:28:39;;;;;;;0.60;0.60;;;0.40;99.90;;;;;;6092739;23;20206;-88
2021/03/16 03:31:07;;;;;;;0.57;0.57;;;0.60;99.90;;;;;;6093000;23;20186;-87
2021/03/16 03:33:36;;;;;;;0.60;0.60;;;0.50;99.90;;;;;;6093011;23;20175;-87
2021/03/16 03:36:04;;;;;;;0.50;0.50;;;0.60;99.90;;;;;;6093264;23;20604;-87
2021/03/16 03:38:32;;;;;;;0.60;0.60;;;0.60;99.90;;;;;;6092939;23;20261;-88
2021/03/16 03:41:00;;;;;;;0.60;0.60;;;0.70;99.90;;;;;;6093018;23;20199;-88
2021/03/16 03:43:28;;;;;;;0.60;0.60;;;-0.50;99.90;;;;;;6093649;23;20206;-88
2021/03/16 03:45:56;;;;;;;0.60;0.60;;;0.80;99.90;;;;;;6094514;23;20179;-89
2021/03/16 03:48:23;;;;;;;0.60;0.60;;;0.20;99.90;;;;;;6093969;23;20202;-87
2021/03/16 03:50:53;;;;;;;0.50;0.50;;;0.70;99.90;;;;;;6094287;23;20266;-88
2021/03/16 03:53:23;;;;;;;0.50;0.50;;;1.70;99.90;;;;;;6093751;23;20171;-87
2021/03/16 03:55:50;;;;;;;0.60;0.60;;;0.30;99.90;;;;;;6094524;23;20163;-89
2021/03/16 03:58:18;;;;;;;0.55;0.55;;;0.20;99.90;;;;;;6093896;23;20203;-87
2021/03/16 04:00:45;;;;;;;0.50;0.50;;;0.80;99.90;;;;;;6093946;23;20665;-87
2021/03/16 04:03:12;;;;;;;0.52;0.52;;;0.40;99.90;;;;;;6093994;23;20252;-88
2021/03/16 04:05:38;;;;;;;0.50;0.50;;;0.20;99.90;;;;;;6093853;23;20285;-87
2021/03/16 04:08:05;;;;;;;0.50;0.50;;;0.30;99.90;;;;;;6093952;23;20179;-88
2021/03/16 04:10:36;;;;;;;0.57;0.57;;;0.50;99.90;;;;;;6094361;23;20180;-88
2021/03/16 04:13:03;;;;;;;0.50;0.50;;;0.80;99.90;;;;;;6093735;23;20194;-88
2021/03/16 04:15:31;;;;;;;0.60;0.60;;;1.30;99.90;;;;;;6093499;23;20245;-88
2021/03/16 04:17:58;;;;;;;0.52;0.52;;;-0.80;99.90;;;;;;6093706;23;20176;-88
2021/03/16 04:20:25;;;;;;;0.50;0.50;;;0.50;99.90;;;;;;6094417;23;20185;-87
2021/03/16 04:22:54;;;;;;;0.50;0.50;;;0.50;99.90;;;;;;6094315;23;20199;-87
2021/03/16 04:25:20;;;;;;;0.60;0.60;;;0.70;99.90;;;;;;6093208;23;20205;-88
2021/03/16 04:27:47;;;;;;;0.50;0.50;;;0.00;99.90;;;;;;6093345;23;20227;-88
2021/03/16 04:30:46;;;;;;;0.50;0.50;;;0.00;99.90;;;;;;6091932;23;20197;-88
2021/03/16 04:33:12;;;;;;;0.60;0.60;;;0.30;99.90;;;;;;6092483;23;20164;-87
2021/03/16 04:35:40;;;;;;;0.50;0.50;;;0.40;99.90;;;;;;6092318;23;20311;-87
2021/03/16 04:38:06;;;;;;;0.50;0.50;;;0.20;99.90;;;;;;6094387;23;20179;-88
2021/03/16 04:40:52;;;;;;;0.60;0.60;;;0.60;99.90;;;;;;6093184;23;20325;-88
2021/03/16 04:43:21;;;;;;;0.60;0.60;;;0.50;99.90;;;;;;6091544;23;20203;-86
2021/03/16 04:46:03;;;;;;;0.50;0.50;;;0.40;99.90;;;;;;6092849;23;20174;-87
2021/03/16 04:48:30;;;;;;;0.55;0.55;;;0.30;99.90;;;;;;6091165;23;20270;-88
2021/03/16 04:50:56;;;;;;;0.60;0.60;;;0.60;99.90;;;;;;6091791;23;20259;-86
2021/03/16 04:53:22;;;;;;;0.60;0.60;;;0.50;99.90;;;;;;6092448;23;20187;-86
2021/03/16 04:55:50;;;;;;;0.60;0.60;;;1.30;99.90;;;;;;6094602;23;20526;-85
2021/03/16 04:58:23;;;;;;;0.50;0.50;;;0.80;99.90;;;;;;6092952;23;20176;-86
2021/03/16 05:00:49;;;;;;;0.55;0.55;;;0.80;99.90;;;;;;6093852;23;20167;-87
2021/03/16 05:03:16;;;;;;;0.60;0.60;;;0.80;99.90;;;;;;6091885;23;20666;-88
2021/03/16 05:05:43;;;;;;;0.52;0.52;;;1.10;99.90;;;;;;6090901;23;20290;-86
2021/03/16 05:08:10;;;;;;;0.50;0.50;;;1.00;99.90;;;;;;6093602;23;20176;-87
2021/03/16 05:10:46;;;;;;;0.55;0.55;;;1.00;99.90;;;;;;6093145;23;20179;-88
2021/03/16 05:13:30;;;;;;;0.50;0.50;;;-0.10;99.90;;;;;;6091510;23;20622;-88
2021/03/16 05:16:05;;;;;;;0.50;0.50;;;0.90;99.90;;;;;;6091389;23;20190;-88
2021/03/16 05:18:32;;;;;;;0.50;0.50;;;1.20;99.90;;;;;;6091383;23;20182;-87
2021/03/16 05:20:58;;;;;;;0.50;0.50;;;1.20;99.90;;;;;;6089964;23;20198;-87
2021/03/16 05:23:24;;;;;;;0.50;0.50;;;1.00;99.90;;;;;;6092654;23;20278;-88
2021/03/16 05:25:54;;;;;;;0.50;0.50;;;1.00;99.90;;;;;;6091880;23;20175;-85
2021/03/16 05:28:21;;;;;;;0.50;0.50;;;2.00;99.90;;;;;;6091094;23;20175;-87
2021/03/16 05:30:48;;;;;;;0.50;0.50;;;1.50;99.90;;;;;;6088659;23;20179;-86
2021/03/16 05:33:15;;;;;;;0.50;0.50;;;3.50;99.90;;;;;;6092367;23;20573;-86
2021/03/16 05:35:41;;;;;;;0.50;0.50;;;2.40;99.90;;;;;;6090953;23;20175;-88
2021/03/16 05:38:22;;;;;;;0.50;0.50;;;1.60;99.90;;;;;;6091545;23;20184;-87
2021/03/16 05:40:49;;;;;;;0.50;0.50;;;2.00;99.90;;;;;;6092329;23;20167;-88
2021/03/16 05:43:16;;;;;;;0.50;0.50;;;2.40;99.90;;;;;;6092941;23;20203;-87
2021/03/16 05:45:43;;;;;;;0.50;0.50;;;1.90;99.90;;;;;;6093756;23;20245;-89
2021/03/16 05:48:14;;;;;;;0.50;0.50;;;0.70;99.90;;;;;;6092892;23;20179;-86
2021/03/16 05:50:41;;;;;;;0.50;0.50;;;2.20;99.90;;;;;;6091305;23;20487;-88
2021/03/16 05:53:07;;;;;;;0.50;0.50;;;1.30;99.90;;;;;;6090051;23;20225;-85
2021/03/16 05:55:34;;;;;;;0.50;0.50;;;1.70;99.90;;;;;;6089854;23;20638;-85
2021/03/16 05:58:01;;;;;;;0.50;0.50;;;0.80;99.90;;;;;;6090398;23;20156;-85
2021/03/16 06:00:28;;;;;;;0.50;0.50;;;1.50;99.90;;;;;;6092067;23;20167;-87
2021/03/16 06:02:55;;;;;;;0.50;0.50;;;1.40;99.90;;;;;;6093666;23;20222;-88
2021/03/16 06:05:23;;;;;;;0.50;0.50;;;1.00;99.90;;;;;;6097339;23;20265;-87
2021/03/16 06:07:50;;;;;;;0.50;0.50;;;2.00;99.90;;;;;;6094275;23;20306;-88
2021/03/16 06:10:19;;;;;;;0.50;0.50;;;3.20;99.90;;;;;;6094473;23;20179;-88
2021/03/16 06:12:46;;;;;;;0.50;0.50;;;3.80;99.90;;;;;;6093842;23;20254;-88
2021/03/16 06:15:14;;;;;;;0.50;0.50;;;2.10;99.90;;;;;;6093978;23;20211;-88
2021/03/16 06:17:44;;;;;;;0.50;0.50;;;2.20;99.90;;;;;;6094009;23;20218;-88
2021/03/16 06:20:46;;;;;;;0.50;0.50;;;2.20;99.90;;;;;;6093363;23;20229;-88
2021/03/16 06:23:27;;;;;;;0.50;0.50;;;2.60;99.90;;;;;;6046565;23;20666;-89
2021/03/16 06:25:54;;;;;;;0.50;0.50;;;3.60;99.90;;;;;;6093202;23;20198;-87
2021/03/16 06:28:20;;;;;;;0.50;0.50;;;3.80;99.90;;;;;;6093457;23;20237;-89
2021/03/16 06:30:49;;;;;;;0.50;0.50;;;2.00;99.90;;;;;;6093134;23;20554;-86
2021/03/16 06:33:20;;;;;;;0.50;0.50;;;1.40;99.90;;;;;;6093709;23;20265;-88
2021/03/16 06:35:58;;;;;;;0.50;0.50;;;2.20;99.90;;;;;;6093554;23;20251;-87
2021/03/16 06:38:33;;;;;;;0.50;0.50;;;3.10;99.90;;;;;;6068128;23;20226;-86
2021/03/16 06:45:00;;;;;;;0.50;0.50;;;2.40;99.90;;;;;;6093343;23;20175;-89
2021/03/16 06:47:50;;;;;;;0.50;0.50;;;2.60;99.90;;;;;;6035031;23;20175;-89
2021/03/16 06:50:16;;;;;;;0.50;0.50;;;2.50;99.90;;;;;;6093711;23;20532;-88
2021/03/16 06:53:01;;;;;;;0.50;0.50;;;5.80;99.90;;;;;;6091857;23;20546;-88
2021/03/16 06:55:36;;;;;;;0.50;0.50;;;3.10;99.90;;;;;;6089488;23;20183;-87
2021/03/16 06:58:31;;;;;;;0.50;0.50;;;3.70;99.90;;;;;;6091899;23;20513;-87
2021/03/16 07:07:55;;;;;;;0.50;0.50;;;4.90;99.90;;;;;;6091826;23;20293;-89
2021/03/16 07:10:31;;;;;;;0.50;0.50;;;4.40;99.90;;;;;;6091167;23;20668;-89
2021/03/16 07:13:17;;;;;;;0.50;0.50;;;4.40;99.90;;;;;;6092880;23;20164;-87
2021/03/16 07:23:27;;;;;;;0.60;0.60;;;3.40;99.90;;;;;;6050229;23;20211;-90
2021/03/16 07:26:30;;;;;;;0.50;0.50;;;5.80;99.90;;;;;;6090640;23;20178;-89
2021/03/16 07:29:35;;;;;;;0.60;0.60;;;1.80;99.90;;;;;;6091885;23;20190;-89
2021/03/16 07:36:14;;;;;;;;;;;;;;;;;;;;;
2021/03/16 07:46:03;;;;;;;0.52;0.52;;;2.10;99.90;;;;;;6029741;23;20231;-90
2021/03/16 07:49:19;;;;;;;0.60;0.60;;;4.90;99.90;;;;;;6032044;23;20180;-90
2021/03/16 07:52:07;;;;;;;;;;;;;;;;;;;;;
2021/03/16 10:23:17;;;;;;;0.60;0.60;;;5.70;99.90;;;;;;5960605;23;20679;-89
2021/03/16 10:26:35;;;;;;;0.60;0.60;;;6.40;99.90;;;;;;6008203;23;20178;-89
2021/03/16 10:33:11;;;;;;;0.60;0.60;;;5.90;99.90;;;;;;6178616;23;20205;-89
2021/03/16 11:34:39;;;;;;;0.60;0.60;;;7.70;99.90;;;;;;5916764;23;20230;-89
2021/03/16 11:37:54;;;;;;;0.60;0.60;;;6.30;99.90;;;;;;5976169;24;20204;-89
2021/03/16 11:58:12;;;;;;;0.60;0.60;;;7.40;99.90;;;;;;5882515;24;20187;-88
2021/03/16 12:00:39;;;;;;;0.60;0.60;;;7.90;99.90;;;;;;5940352;23;20178;-86
2021/03/16 12:03:08;;;;;;;0.60;0.60;;;7.40;99.90;;;;;;6005909;23;20202;-86
2021/03/16 12:05:34;;;;;;;0.60;0.60;;;6.80;99.90;;;;;;6246737;23;20274;-86
2021/03/16 12:08:10;;;;;;;0.60;0.60;;;6.60;99.90;;;;;;6244904;23;20246;-87
2021/03/16 12:10:40;;;;;;;0.60;0.60;;;7.00;99.90;;;;;;6243537;23;20167;-86
2021/03/16 12:13:11;;;;;;;0.60;0.60;;;9.40;99.90;;;;;;6244149;23;20492;-88
2021/03/16 12:16:22;;;;;;;0.60;0.60;;;7.50;99.90;;;;;;6244109;23;20219;-89
2021/03/16 12:18:51;;;;;;;0.60;0.60;;;8.20;99.90;;;;;;6204832;23;20190;-88
2021/03/16 12:21:18;;;;;;;0.60;0.60;;;5.90;99.90;;;;;;6243326;23;20175;-88
2021/03/16 12:23:44;;;;;;;0.60;0.60;;;9.00;99.90;;;;;;6243713;22;20203;-87
2021/03/16 12:26:11;;;;;;;0.60;0.60;;;9.50;99.90;;;;;;6242314;23;20180;-86
2021/03/16 12:28:38;;;;;;;0.60;0.60;;;7.40;99.90;;;;;;6244668;23;20175;-85
2021/03/16 12:31:04;;;;;;;0.60;0.60;;;9.40;99.90;;;;;;6244079;23;20176;-88
2021/03/16 12:33:33;;;;;;;0.50;0.50;;;6.80;99.90;;;;;;6243646;23;20167;-87
2021/03/16 12:36:37;;;;;;;0.55;0.55;;;6.10;99.90;;;;;;6244111;23;20238;-86
2021/03/16 12:39:06;;;;;;;0.60;0.60;;;7.30;99.90;;;;;;6240727;23;20191;-87
2021/03/16 12:41:34;;;;;;;0.60;0.60;;;6.80;99.90;;;;;;6244380;23;20199;-87
2021/03/16 12:44:01;;;;;;;0.60;0.60;;;6.60;99.90;;;;;;6246300;23;20191;-86
2021/03/16 12:46:35;;;;;;;0.60;0.60;;;6.50;99.90;;;;;;6241360;23;20254;-86
2021/03/16 12:49:39;;;;;;;0.55;0.55;;;6.70;99.90;;;;;;6245091;23;20172;-88
2021/03/16 12:52:38;;;;;;;0.60;0.60;;;8.30;99.90;;;;;;6243899;23;20179;-85
2021/03/16 12:55:05;;;;;;;0.60;0.60;;;7.30;99.90;;;;;;6244378;23;20187;-86
2021/03/16 12:57:32;;;;;;;0.60;0.60;;;6.70;99.90;;;;;;6246746;23;20229;-87
2021/03/16 13:04:02;;;;;;;0.60;0.60;;;8.80;99.90;;;;;;6245546;23;20229;-87
2021/03/16 13:06:38;;;;;;;0.60;0.60;;;6.90;99.90;;;;;;6246197;23;20496;-89
2021/03/16 13:09:05;;;;;;;0.60;0.60;;;6.10;99.90;;;;;;6246389;23;20213;-87
2021/03/16 13:11:34;;;;;;;0.60;0.60;;;6.80;99.90;;;;;;6245631;23;20693;-88
2021/03/16 13:14:02;;;;;;;0.60;0.60;;;6.90;99.90;;;;;;6243662;23;20199;-88
2021/03/16 13:16:51;;;;;;;0.50;0.50;;;6.10;99.90;;;;;;6244950;23;20172;-87
2021/03/16 13:19:20;;;;;;;0.60;0.60;;;7.60;99.90;;;;;;6244365;23;20275;-89
2021/03/16 13:22:08;;;;;;;0.60;0.60;;;7.10;99.90;;;;;;6245441;23;20191;-88
2021/03/16 13:24:37;;;;;;;0.60;0.60;;;8.90;99.90;;;;;;6256373;22;20203;-88
2021/03/16 13:27:07;;;;;;;0.60;0.60;;;8.80;99.90;;;;;;6276926;22;20179;-87
2021/03/16 13:29:34;;;;;;;0.50;0.50;;;7.60;99.90;;;;;;6277435;22;20199;-86
2021/03/16 13:32:01;;;;;;;0.60;0.60;;;7.10;99.90;;;;;;6277435;22;20254;-88
2021/03/16 13:34:27;;;;;;;0.60;0.60;;;8.40;99.90;;;;;;6278501;22;20238;-86
2021/03/16 13:36:55;;;;;;;0.60;0.60;;;8.20;99.90;;;;;;6277773;22;20177;-87
2021/03/16 13:39:22;;;;;;;0.60;0.60;;;9.80;99.90;;;;;;6277812;22;20179;-87
2021/03/16 13:41:51;;;;;;;0.50;0.50;;;6.90;99.90;;;;;;6281324;22;20179;-88
2021/03/16 13:44:20;;;;;;;0.60;0.60;;;8.30;99.90;;;;;;6273115;22;20277;-87
2021/03/16 13:46:47;;;;;;;0.60;0.60;;;9.90;99.90;;;;;;6276571;22;20309;-86
2021/03/16 13:49:13;;;;;;;0.60;0.60;;;8.00;99.90;;;;;;6276708;22;20190;-88
2021/03/16 13:51:43;;;;;;;0.60;0.60;;;6.40;99.90;;;;;;6276536;22;20183;-88
2021/03/16 13:54:10;;;;;;;0.60;0.60;;;9.10;99.90;;;;;;6276031;22;20171;-88
2021/03/16 13:56:39;;;;;;;0.60;0.60;;;7.90;99.90;;;;;;6276551;22;20171;-88
2021/03/16 13:59:16;;;;;;;0.60;0.60;;;8.20;99.90;;;;;;6276031;22;20254;-89
2021/03/16 14:01:43;;;;;;;0.60;0.60;;;7.90;99.90;;;;;;6277032;22;20178;-87
2021/03/16 14:04:09;;;;;;;0.60;0.60;;;10.30;99.90;;;;;;6275040;22;20205;-86
2021/03/16 14:06:35;;;;;;;0.60;0.60;;;9.60;99.90;;;;;;6276836;22;20174;-86
2021/03/16 14:09:02;;;;;;;0.60;0.60;;;7.30;99.90;;;;;;6277489;22;20175;-86
2021/03/16 14:11:29;;;;;;;0.60;0.60;;;9.30;99.90;;;;;;6277551;22;20179;-88
2021/03/16 14:13:56;;;;;;;0.50;0.50;;;6.90;99.90;;;;;;6277599;22;20199;-86
2021/03/16 14:16:22;;;;;;;0.60;0.60;;;9.30;99.90;;;;;;6277362;22;20494;-87
2021/03/16 14:18:48;;;;;;;0.60;0.60;;;7.50;99.90;;;;;;6277501;22;20506;-87
2021/03/16 14:21:15;;;;;;;0.60;0.60;;;9.80;99.90;;;;;;6277478;22;20305;-88
2021/03/16 14:23:41;;;;;;;0.60;0.60;;;7.00;99.90;;;;;;6276472;22;20808;-87
2021/03/16 14:26:08;;;;;;;0.60;0.60;;;5.20;99.90;;;;;;6277376;22;20199;-88
2021/03/16 14:28:35;;;;;;;0.60;0.60;;;9.10;99.90;;;;;;6276162;22;20178;-87
2021/03/16 14:31:01;;;;;;;0.60;0.60;;;6.80;99.90;;;;;;6275289;22;20626;-88
2021/03/16 14:33:27;;;;;;;0.60;0.60;;;8.50;99.90;;;;;;6275205;22;20171;-87
2021/03/16 14:35:54;;;;;;;0.60;0.60;;;8.10;99.90;;;;;;6274515;22;20492;-87
2021/03/16 14:38:20;;;;;;;0.60;0.60;;;7.20;99.90;;;;;;6274639;22;20262;-87
2021/03/16 14:40:49;;;;;;;0.60;0.60;;;8.90;99.90;;;;;;6274395;22;20175;-87
2021/03/16 14:43:16;;;;;;;0.60;0.60;;;8.90;99.90;;;;;;6275719;22;20256;-87
2021/03/16 14:45:53;;;;;;;0.50;0.50;;;8.70;99.90;;;;;;6275573;22;20261;-87
2021/03/16 14:48:20;;;;;;;0.60;0.60;;;6.90;99.90;;;;;;6274187;22;20305;-88
2021/03/16 14:51:04;;;;;;;0.57;0.57;;;8.20;99.90;;;;;;6275121;22;20178;-89
2021/03/16 14:53:38;;;;;;;0.60;0.60;;;6.80;99.90;;;;;;6275623;22;20175;-88
2021/03/16 14:56:09;;;;;;;0.60;0.60;;;7.70;99.90;;;;;;6273781;22;20171;-88
2021/03/16 14:58:35;;;;;;;0.60;0.60;;;6.80;99.90;;;;;;6270037;22;20171;-88
2021/03/16 15:01:02;;;;;;;0.60;0.60;;;5.10;99.90;;;;;;6273066;22;20222;-87
2021/03/16 15:03:37;;;;;;;0.60;0.60;;;6.30;99.90;;;;;;6273017;22;20791;-87
2021/03/16 15:06:11;;;;;;;0.60;0.60;;;7.40;99.90;;;;;;6276761;22;20159;-88
2021/03/16 15:09:00;;;;;;;0.60;0.60;;;7.20;99.90;;;;;;6274695;22;20182;-90
2021/03/16 15:11:42;;;;;;;0.60;0.60;;;6.30;99.90;;;;;;6274464;22;20171;-88
2021/03/16 15:14:14;;;;;;;0.50;0.50;;;6.80;99.90;;;;;;6272292;22;20174;-88
2021/03/16 15:16:54;;;;;;;0.60;0.60;;;6.40;99.90;;;;;;6273537;22;20202;-86
2021/03/16 15:19:26;;;;;;;0.60;0.60;;;6.40;99.90;;;;;;6271419;22;20175;-90
2021/03/16 15:21:57;;;;;;;0.60;0.60;;;6.50;99.90;;;;;;6274642;22;20673;-88
2021/03/16 15:24:31;;;;;;;0.60;0.60;;;6.00;99.90;;;;;;6265742;22;20245;-89
2021/03/16 15:28:00;;;;;;;0.60;0.60;;;7.60;99.90;;;;;;6243519;23;20247;-89
2021/03/16 15:30:31;;;;;;;0.60;0.60;;;6.60;99.90;;;;;;6240373;23;20206;-90
2021/03/16 15:32:58;;;;;;;0.60;0.60;;;7.60;99.90;;;;;;6237699;23;20623;-87
2021/03/16 15:35:49;;;;;;;0.60;0.60;;;8.60;99.90;;;;;;6242196;23;20172;-87
2021/03/16 15:38:25;;;;;;;0.60;0.60;;;6.30;99.90;;;;;;6244528;23;20252;-87
2021/03/16 15:40:55;;;;;;;0.60;0.60;;;5.30;99.90;;;;;;6246929;23;20189;-87
2021/03/16 15:47:38;;;;;;;0.60;0.60;;;6.30;99.90;;;;;;6249997;23;20139;-89
2021/03/16 15:50:23;;;;;;;0.52;0.52;;;6.00;99.90;;;;;;6248932;23;20615;-88
2021/03/16 15:52:54;;;;;;;0.60;0.60;;;5.10;99.90;;;;;;6250826;23;20175;-89
2021/03/16 15:55:50;;;;;;;0.60;0.60;;;7.00;99.90;;;;;;6250738;23;20198;-89
2021/03/16 16:01:15;;;;;;;0.50;0.50;;;5.90;99.90;;;;;;6247175;23;20650;-89
2021/03/16 16:03:53;;;;;;;0.60;0.60;;;5.90;99.90;;;;;;6248890;23;20195;-89
2021/03/16 16:06:27;;;;;;;0.60;0.60;;;7.10;99.90;;;;;;6247476;23;20187;-89
2021/03/16 16:09:05;;;;;;;0.60;0.60;;;6.80;99.90;;;;;;6253063;23;20190;-89
2021/03/16 16:11:33;;;;;;;0.60;0.60;;;6.00;99.90;;;;;;6250507;23;20168;-89
2021/03/16 16:14:00;;;;;;;0.60;0.60;;;4.70;99.90;;;;;;6249896;23;20255;-89
2021/03/16 16:16:29;;;;;;;0.60;0.60;;;4.90;99.90;;;;;;6251597;23;20176;-88
2021/03/16 16:19:59;;;;;;;0.55;0.55;;;5.00;99.90;;;;;;6249327;23;20646;-88
2021/03/16 16:22:48;;;;;;;0.50;0.50;;;5.70;99.90;;;;;;6243226;23;20194;-88
2021/03/16 16:25:36;;;;;;;0.60;0.60;;;4.60;99.90;;;;;;6249979;22;20229;-89
2021/03/16 16:28:03;;;;;;;0.60;0.60;;;6.00;99.90;;;;;;6247276;23;20168;-89
2021/03/16 16:33:30;;;;;;;0.57;0.57;;;7.80;99.90;;;;;;6243477;23;20172;-88
2021/03/16 16:36:03;;;;;;;0.60;0.60;;;7.40;99.90;;;;;;6246613;23;20221;-89
2021/03/16 16:38:36;;;;;;;0.60;0.60;;;5.40;99.90;;;;;;6246606;23;20509;-88
2021/03/16 16:41:05;;;;;;;0.60;0.60;;;5.20;99.90;;;;;;6247826;23;20176;-88
2021/03/16 16:43:41;;;;;;;0.60;0.60;;;5.10;99.90;;;;;;6249025;23;20198;-88
2021/03/16 16:46:31;;;;;;;0.60;0.60;;;5.10;99.90;;;;;;6248601;23;20176;-88
2021/03/16 16:49:08;;;;;;;0.50;0.50;;;5.00;99.90;;;;;;6244548;23;20182;-90
2021/03/16 16:51:45;;;;;;;0.60;0.60;;;5.20;99.90;;;;;;6246391;23;20163;-88
2021/03/16 16:54:29;;;;;;;0.52;0.52;;;6.00;99.90;;;;;;6244288;23;20171;-89
2021/03/16 16:57:08;;;;;;;0.60;0.60;;;4.90;99.90;;;;;;6245283;23;20170;-88
2021/03/16 16:59:34;;;;;;;0.60;0.60;;;5.60;99.90;;;;;;6242511;23;20223;-88
2021/03/16 17:02:06;;;;;;;0.60;0.60;;;5.30;99.90;;;;;;6245205;23;20176;-87
2021/03/16 17:04:37;;;;;;;0.50;0.50;;;5.30;99.90;;;;;;6245689;23;20419;-88
2021/03/16 17:07:09;;;;;;;0.50;0.50;;;7.10;99.90;;;;;;6246485;23;20468;-89
2021/03/16 17:09:36;;;;;;;0.60;0.60;;;6.30;99.90;;;;;;6247241;23;20164;-88
2021/03/16 17:12:07;;;;;;;0.60;0.60;;;4.40;99.90;;;;;;6247243;23;20171;-88
2021/03/16 17:14:39;;;;;;;0.60;0.60;;;5.00;99.90;;;;;;6245653;23;20214;-89
2021/03/16 17:17:13;;;;;;;0.60;0.60;;;5.10;99.90;;;;;;6245160;23;20163;-87
2021/03/16 17:19:45;;;;;;;0.60;0.60;;;4.70;99.90;;;;;;6246879;23;20252;-90
2021/03/16 17:22:11;;;;;;;0.60;0.60;;;6.40;99.90;;;;;;6245019;23;20600;-88
2021/03/16 17:24:38;;;;;;;0.50;0.50;;;4.00;99.90;;;;;;6222835;23;20735;-88
2021/03/16 17:27:05;;;;;;;0.60;0.60;;;5.50;99.90;;;;;;6118974;23;20174;-89
2021/03/16 17:29:32;;;;;;;0.60;0.60;;;4.60;99.90;;;;;;6123225;23;20626;-87
2021/03/16 17:32:05;;;;;;;0.60;0.60;;;6.40;99.90;;;;;;6121319;23;20182;-88
2021/03/16 17:34:35;;;;;;;0.60;0.60;;;4.50;99.90;;;;;;6120911;23;20257;-89
2021/03/16 17:37:02;;;;;;;0.60;0.60;;;3.90;99.90;;;;;;6117060;23;20186;-88
2021/03/16 17:39:31;;;;;;;0.60;0.60;;;7.40;99.90;;;;;;6121163;23;20183;-87
2021/03/16 17:42:03;;;;;;;0.60;0.60;;;4.10;99.90;;;;;;6123861;23;20179;-88
2021/03/16 17:44:31;;;;;;;0.60;0.60;;;4.50;99.90;;;;;;6123219;23;20206;-90
2021/03/16 17:47:11;;;;;;;0.60;0.60;;;4.20;99.90;;;;;;6124459;23;20174;-88
2021/03/16 17:49:43;;;;;;;0.52;0.52;;;4.20;99.90;;;;;;6123069;23;20205;-89
2021/03/16 17:52:48;;;;;;;0.57;0.57;;;4.40;99.90;;;;;;6121907;23;20217;-89
2021/03/16 17:55:23;;;;;;;0.50;0.50;;;6.50;99.90;;;;;;6121171;22;20181;-88
2021/03/16 17:58:29;;;;;;;0.60;0.60;;;5.60;99.90;;;;;;6122367;23;20223;-89